• Join FlightAware (Why Join?)
  • Login
  • US Flag 
08:58PM EDT


 

Airport Tracker/Info


-or-


 

Live Flight TrackerFlight Track Log ✈ N70AG ✈ 09-May-2013 ✈ KLAS - KSCK

Flight Track Log - Related Links

Times and Time Zones

All times are in EDT time to prevent confusion due to time zone crossing. See the N70AG flight status page for this flight to view local times or setup timezone preferences in your user account.

Time Position Orientation Groundspeed Altitude Reporting Facility
EDT Latitude Longitude Course Direction KTS MPH feet Rate Location/Type
12:37PM 36.0592 -115.1792 207° Southwest 202 232 4,300  Level Los Angeles Center
12:37PM 36.0228 -115.2017 207° Southwest 234 269 6,300 3,000 Climbing Los Angeles Center
12:38PM 36.0056 -115.2192 219° Southwest 238 274 7,400 3,780 Climbing Los Angeles Center
12:38PM 35.9789 -115.2772 240° Southwest 285 328 10,200 3,480 Climbing Los Angeles Center
12:39PM 35.9642 -115.3075 239° Southwest 278 320 11,000 2,640 Climbing Los Angeles Center
12:39PM 35.9186 -115.3686 227° Southwest 359 413 12,900 3,000 Climbing Los Angeles Center
12:40PM 35.9003 -115.4058 239° Southwest 335 386 14,100 3,180 Climbing Los Angeles Center
12:41PM 35.8869 -115.5350 263° West 367 422 17,700 3,000 Climbing Los Angeles Center
12:42PM 35.8906 -115.6939 272° West 405 466 20,400 2,760 Climbing Los Angeles Center
12:43PM 35.8947 -115.8517 272° West 426 490 23,500 2,700 Climbing Los Angeles Center
12:44PM 35.9381 -115.9936 291° West 445 512 26,100 2,220 Climbing Los Angeles Center
12:45PM 36.0133 -116.1094 309° West 456 525 28,600 2,580 Climbing Los Angeles Center
12:46PM 36.1306 -116.2394 318° Northwest 455 524 32,000 3,420 Climbing Los Angeles Center
12:47PM 36.2206 -116.3439 317° Northwest 448 516 35,800 2,760 Climbing Los Angeles Center
12:48PM 36.3061 -116.4439 317° Northwest 429 494 37,800 1,020 Climbing Los Angeles Center
12:49PM 36.4158 -116.5700 317° Northwest 457 526 38,000 60 Climbing Los Angeles Center
12:50PM 36.5111 -116.6869 315° West 481 554 38,000  Level Los Angeles Center
12:52PM 36.5697 -116.7975 303° West 484 557 38,000  Level Los Angeles Center
12:53PM 36.6311 -116.9886 292° West 490 564 38,000  Level Los Angeles Center
12:54PM 36.6794 -117.1475 291° West 492 566 38,000  Level Los Angeles Center
12:55PM 36.7397 -117.3444 291° West 504 580 38,000  Level Los Angeles Center
12:56PM 36.7911 -117.5106 291° West 505 581 38,000  Level Los Angeles Center
12:57PM 36.8408 -117.6764 291° West 508 585 38,000  Level Los Angeles Center
12:58PM 36.8900 -117.8394 291° West 502 578 38,000  Level Los Angeles Center
12:59PM 36.9386 -117.9989 291° West 494 568 38,000 -120 Level Los Angeles Center
01:00PM 36.9864 -118.1606 290° West 493 567 37,800 -720 Descending Los Angeles Center
01:01PM 37.0447 -118.3544 291° West 494 568 36,600 -1,080 Descending Los Angeles Center
01:02PM 37.0839 -118.4925 290° West 493 567 35,700 -1,260 Descending Oakland Center
01:03PM 37.1308 -118.6533 290° West 494 568 34,100 -2,040 Descending Oakland Center
01:04PM 37.1794 -118.8208 290° West 514 592 31,600 -2,460 Descending Oakland Center
01:05PM 37.2308 -118.9933 291° West 524 603 29,100 -2,700 Descending Oakland Center
01:06PM 37.2867 -119.1911 290° West 503 579 26,100 -2,460 Descending Oakland Center
01:07PM 37.3283 -119.3375 290° West 456 525 24,100 -2,040 Descending Oakland Center
01:08PM 37.3714 -119.4906 290° West 450 518 22,000 -1,920 Descending Oakland Center
01:09PM 37.4056 -119.6175 289° West 436 502 20,200 -1,020 Descending Oakland Center
01:10PM 37.4453 -119.7581 290° West 428 493 20,000 -720 Descending Oakland Center
01:11PM 37.4928 -119.9272 290° West 426 490 18,800 -1,260 Descending Oakland Center
01:12PM 37.5308 -120.0706 289° West 435 501 17,500 -1,440 Descending Oakland Center
01:13PM 37.5739 -120.2039 292° West 399 459 15,900 -1,560 Descending Oakland Center
01:14PM 37.6103 -120.3436 288° West 414 476 14,400 -1,560 Descending Oakland Center
01:14PM 37.6167 -120.4000 278° West 411 473 13,900 -1,500 Descending Northern Cal TRACON
01:15PM 37.6478 -120.4775 297° West 408 470 12,900 -1,740 Descending Oakland Center
01:16PM 37.6822 -120.6036 289° West 388 447 10,900 -1,800 Descending Oakland Center
01:17PM 37.7142 -120.7158 290° West 352 405 9,300 -1,680 Descending Oakland Center
01:18PM 37.7417 -120.8131 290° West 301 346 7,600 -1,560 Descending Oakland Center
01:19PM 37.7669 -120.9072 289° West 286 329 6,200 -1,560 Descending Oakland Center
01:20PM 37.7919 -120.9956 290° West 275 316 4,500 -1,620 Descending Oakland Center
01:21PM 37.8339 -121.0628 308° West 265 305 3,000 -1,500 Descending Oakland Center
01:22PM 37.8500 -121.1333 286° West 204 235 1,600 -1,200 Descending Northern Cal TRACON
01:23PM 37.8667 -121.1833 293° West 140 161 800 -720 Descending Northern Cal TRACON
01:24PM 37.8833 -121.2167 302° West 114 131 200 -600 Descending Northern Cal TRACON
01:27PM 37.8833 -121.2333 142° Southeast  Level FlightAware Approximate
01:34PM 37.8942 -121.2383 142° Southeast  Level Estimated